Time;durP1;ratioP1;P1;durP2;ratioP2;P2;SDS_P1;SDS_P2;PMS_P1;PMS_P2;Temp;Humidity;BMP_temperature;BMP_pressure;BME280_temperature;BME280_humidity;BME280_pressure;Samples;Min_cycle;Max_cycle;Signal;HPM_P1;HPM_P2
2022/03/01 00:01:46;;;;;;;16.52;5.50;;;;;;;;;;5034145;28;20072;-62
2022/03/01 00:04:12;;;;;;;18.33;5.88;;;;;;;;;;5050577;28;20025;-62
2022/03/01 00:06:38;;;;;;;17.65;5.60;;;;;;;;;;5052742;28;20029;-62
2022/03/01 00:09:04;;;;;;;17.58;5.95;;;;;;;;;;5052282;28;20025;-62
2022/03/01 00:11:32;;;;;;;17.13;5.43;;;;;;;;;;5052553;28;20103;-63
2022/03/01 00:13:58;;;;;;;18.02;5.50;;;;;;;;;;5051946;28;20397;-62
2022/03/01 00:16:24;;;;;;;16.85;5.55;;;;;;;;;;5052855;28;20017;-62
2022/03/01 00:18:50;;;;;;;18.05;5.47;;;;;;;;;;5052908;28;20040;-61
2022/03/01 00:21:16;;;;;;;15.48;5.45;;;;;;;;;;5052408;28;20101;-62
2022/03/01 00:23:42;;;;;;;17.25;5.75;;;;;;;;;;5044196;28;20497;-61
2022/03/01 00:26:08;;;;;;;17.95;5.47;;;;;;;;;;5032855;28;20026;-62
2022/03/01 00:28:34;;;;;;;15.88;5.25;;;;;;;;;;5033015;28;20036;-61
2022/03/01 00:31:00;;;;;;;16.83;5.30;;;;;;;;;;5033413;28;20030;-62
2022/03/01 00:33:27;;;;;;;17.60;5.30;;;;;;;;;;5037797;28;20033;-62
2022/03/01 00:35:53;;;;;;;17.63;5.57;;;;;;;;;;5036923;28;20028;-62
2022/03/01 00:38:19;;;;;;;17.10;5.78;;;;;;;;;;5036911;28;20057;-61
2022/03/01 00:40:45;;;;;;;17.17;5.53;;;;;;;;;;5036517;28;20467;-62
2022/03/01 00:43:11;;;;;;;16.58;5.10;;;;;;;;;;5037805;28;20042;-62
2022/03/01 00:45:36;;;;;;;17.05;5.47;;;;;;;;;;5056686;28;20078;-62
2022/03/01 00:48:03;;;;;;;16.73;5.40;;;;;;;;;;5056392;28;20057;-61
2022/03/01 00:50:28;;;;;;;19.85;5.53;;;;;;;;;;5056277;28;20036;-61
2022/03/01 00:52:55;;;;;;;17.80;5.68;;;;;;;;;;5055987;28;20021;-61
2022/03/01 00:55:21;;;;;;;19.75;6.38;;;;;;;;;;5043435;28;20511;-61
2022/03/01 00:57:46;;;;;;;17.42;6.00;;;;;;;;;;5041804;28;20060;-61
2022/03/01 01:00:13;;;;;;;20.50;6.28;;;;;;;;;;5053546;28;20021;-61
2022/03/01 01:02:39;;;;;;;18.40;5.85;;;;;;;;;;5056253;28;20021;-62
2022/03/01 01:05:05;;;;;;;20.42;5.65;;;;;;;;;;5054679;28;20025;-60
2022/03/01 01:07:32;;;;;;;18.73;6.07;;;;;;;;;;5054876;28;20397;-61
2022/03/01 01:09:57;;;;;;;19.10;6.18;;;;;;;;;;5046249;28;20014;-61
2022/03/01 01:12:24;;;;;;;19.60;6.03;;;;;;;;;;5055243;28;20029;-60
2022/03/01 01:14:50;;;;;;;19.27;6.38;;;;;;;;;;5036154;28;20445;-61
2022/03/01 01:17:16;;;;;;;18.02;5.97;;;;;;;;;;5035919;28;20030;-60
2022/03/01 01:19:42;;;;;;;18.50;6.40;;;;;;;;;;5034718;28;20029;-61
2022/03/01 01:24:52;;;;;;;17.45;6.20;;;;;;;;;;5052443;28;20036;-61
2022/03/01 01:27:18;;;;;;;18.35;6.10;;;;;;;;;;5018915;28;20033;-61
2022/03/01 01:29:44;;;;;;;18.40;6.13;;;;;;;;;;5035976;28;20462;-61
2022/03/01 01:32:10;;;;;;;18.92;5.80;;;;;;;;;;5039407;28;20120;-61
2022/03/01 01:34:36;;;;;;;18.13;5.90;;;;;;;;;;5052064;28;20144;-66
2022/03/01 01:37:02;;;;;;;18.35;6.10;;;;;;;;;;5055871;28;20032;-67
2022/03/01 01:39:28;;;;;;;24.00;6.22;;;;;;;;;;5052013;28;20056;-61
2022/03/01 01:41:54;;;;;;;24.85;6.43;;;;;;;;;;5053503;28;20473;-62
2022/03/01 01:44:20;;;;;;;22.25;6.15;;;;;;;;;;5045345;28;20037;-60
2022/03/01 01:46:46;;;;;;;21.50;6.32;;;;;;;;;;5055272;28;20025;-61
2022/03/01 01:49:12;;;;;;;21.73;6.20;;;;;;;;;;5054861;28;20064;-62
2022/03/01 01:51:38;;;;;;;22.02;6.10;;;;;;;;;;5055039;28;20029;-62
2022/03/01 01:54:06;;;;;;;18.88;6.00;;;;;;;;;;5053039;28;20041;-62
2022/03/01 01:56:31;;;;;;;19.67;6.13;;;;;;;;;;5055487;28;20111;-61
2022/03/01 01:58:57;;;;;;;19.55;5.72;;;;;;;;;;5062164;28;20107;-61
2022/03/01 02:01:23;;;;;;;16.88;5.90;;;;;;;;;;5069062;28;20566;-61
2022/03/01 02:03:49;;;;;;;20.48;5.63;;;;;;;;;;5058067;28;20017;-60
2022/03/01 02:06:15;;;;;;;17.33;5.70;;;;;;;;;;5054200;28;20645;-61
2022/03/01 02:08:41;;;;;;;17.77;5.80;;;;;;;;;;5051256;28;20028;-60
2022/03/01 02:11:08;;;;;;;18.95;6.13;;;;;;;;;;5052292;28;20025;-62
2022/03/01 02:13:34;;;;;;;16.67;5.93;;;;;;;;;;5035531;28;20087;-60
2022/03/01 02:16:00;;;;;;;20.92;6.30;;;;;;;;;;5034292;28;20070;-61
2022/03/01 02:18:27;;;;;;;16.92;5.97;;;;;;;;;;5033694;28;20048;-61
2022/03/01 02:20:52;;;;;;;17.35;5.78;;;;;;;;;;5049811;28;20061;-61
2022/03/01 02:23:18;;;;;;;18.65;6.15;;;;;;;;;;5052407;28;20474;-61
2022/03/01 02:25:45;;;;;;;18.08;5.32;;;;;;;;;;5050896;28;20108;-60
2022/03/01 02:28:11;;;;;;;15.88;5.43;;;;;;;;;;5053549;28;20033;-62
2022/03/01 02:30:37;;;;;;;17.45;5.50;;;;;;;;;;5052287;28;20065;-61
2022/03/01 02:33:03;;;;;;;19.65;6.10;;;;;;;;;;5054140;28;20028;-61
2022/03/01 02:35:29;;;;;;;19.42;5.63;;;;;;;;;;5054717;28;20120;-60
2022/03/01 02:37:55;;;;;;;16.55;5.60;;;;;;;;;;5053083;28;20509;-61
2022/03/01 02:40:21;;;;;;;18.45;5.95;;;;;;;;;;5053770;28;20044;-60
2022/03/01 02:42:48;;;;;;;19.58;6.13;;;;;;;;;;5054435;28;20032;-60
2022/03/01 02:45:15;;;;;;;17.08;5.45;;;;;;;;;;5054193;28;20028;-60
2022/03/01 02:47:42;;;;;;;16.65;5.50;;;;;;;;;;5054224;28;20040;-60
2022/03/01 02:50:09;;;;;;;15.98;5.50;;;;;;;;;;5053370;28;20027;-60
2022/03/01 02:52:36;;;;;;;17.20;5.53;;;;;;;;;;5054522;28;20021;-61
2022/03/01 02:55:03;;;;;;;18.23;5.72;;;;;;;;;;5053048;28;20032;-60
2022/03/01 02:57:29;;;;;;;18.17;5.88;;;;;;;;;;5050215;28;20025;-60
2022/03/01 02:59:55;;;;;;;25.08;7.05;;;;;;;;;;5054072;28;20029;-62
2022/03/01 03:02:21;;;;;;;26.33;7.60;;;;;;;;;;5054041;28;20067;-60
2022/03/01 03:04:47;;;;;;;25.30;8.18;;;;;;;;;;5053131;28;20063;-61
2022/03/01 03:07:14;;;;;;;32.22;8.43;;;;;;;;;;5053843;28;20470;-60
2022/03/01 03:09:40;;;;;;;25.17;8.25;;;;;;;;;;5045330;28;20029;-60
2022/03/01 03:12:06;;;;;;;25.88;8.65;;;;;;;;;;5034570;28;20043;-64
2022/03/01 03:14:33;;;;;;;23.05;8.18;;;;;;;;;;5033771;28;20049;-61
2022/03/01 03:16:59;;;;;;;26.50;7.03;;;;;;;;;;5016022;28;20041;-62
2022/03/01 03:19:25;;;;;;;29.25;7.63;;;;;;;;;;5033637;28;20105;-60
2022/03/01 03:21:51;;;;;;;25.83;7.25;;;;;;;;;;5033895;28;20025;-63
2022/03/01 03:24:17;;;;;;;30.65;8.40;;;;;;;;;;5034423;28;20034;-70
2022/03/01 03:26:43;;;;;;;25.33;7.30;;;;;;;;;;5035013;28;20093;-63
2022/03/01 03:29:10;;;;;;;24.17;6.93;;;;;;;;;;5048905;28;20035;-64
2022/03/01 03:31:36;;;;;;;30.15;7.28;;;;;;;;;;5052964;28;20457;-68
2022/03/01 03:34:03;;;;;;;23.33;7.10;;;;;;;;;;5053632;28;20119;-67
2022/03/01 03:36:29;;;;;;;22.50;6.78;;;;;;;;;;5053413;28;20064;-63
2022/03/01 03:38:55;;;;;;;27.85;7.00;;;;;;;;;;5053511;28;20021;-65
2022/03/01 03:41:21;;;;;;;22.15;7.03;;;;;;;;;;5046095;28;20048;-67
2022/03/01 03:43:47;;;;;;;19.95;6.45;;;;;;;;;;5033203;28;20033;-65
2022/03/01 03:46:13;;;;;;;19.83;6.65;;;;;;;;;;5033452;28;20072;-63
2022/03/01 03:48:39;;;;;;;24.38;6.97;;;;;;;;;;5033361;28;20543;-64
2022/03/01 03:51:05;;;;;;;20.02;6.57;;;;;;;;;;5033141;28;20108;-60
2022/03/01 03:53:31;;;;;;;22.67;6.53;;;;;;;;;;5033620;28;20068;-60
2022/03/01 03:55:57;;;;;;;18.13;6.20;;;;;;;;;;5052672;28;20053;-61
2022/03/01 03:58:23;;;;;;;22.85;7.03;;;;;;;;;;5051151;28;20032;-59
2022/03/01 04:00:49;;;;;;;21.50;6.30;;;;;;;;;;5052266;28;20017;-62
2022/03/01 04:03:15;;;;;;;19.48;6.20;;;;;;;;;;5052922;28;20100;-59
2022/03/01 04:05:41;;;;;;;20.10;6.45;;;;;;;;;;5039861;28;20025;-59
2022/03/01 04:08:07;;;;;;;18.70;6.28;;;;;;;;;;5033191;28;20017;-61
2022/03/01 04:10:33;;;;;;;19.40;6.63;;;;;;;;;;5032890;28;20028;-67
2022/03/01 04:12:59;;;;;;;19.40;6.60;;;;;;;;;;5034022;28;20105;-68
2022/03/01 04:15:25;;;;;;;18.77;6.38;;;;;;;;;;5032940;28;20112;-68
2022/03/01 04:17:51;;;;;;;18.98;6.47;;;;;;;;;;5034201;28;20025;-68
2022/03/01 04:20:18;;;;;;;18.90;6.57;;;;;;;;;;5048163;28;20091;-68
2022/03/01 04:22:45;;;;;;;20.00;6.70;;;;;;;;;;5053209;28;20021;-68
2022/03/01 04:25:11;;;;;;;18.20;6.57;;;;;;;;;;5053196;28;20025;-68
2022/03/01 04:27:37;;;;;;;19.65;6.70;;;;;;;;;;5051878;28;20094;-68
2022/03/01 04:30:03;;;;;;;18.30;6.40;;;;;;;;;;5051061;28;20033;-68
2022/03/01 04:32:29;;;;;;;19.13;6.57;;;;;;;;;;5052624;28;20033;-68
2022/03/01 04:34:55;;;;;;;18.25;6.38;;;;;;;;;;5035043;28;20090;-68
2022/03/01 04:37:21;;;;;;;18.38;6.45;;;;;;;;;;5052675;28;20466;-65
2022/03/01 04:39:47;;;;;;;19.92;6.72;;;;;;;;;;5050603;28;20040;-67
2022/03/01 04:42:13;;;;;;;18.67;6.65;;;;;;;;;;5051077;28;20416;-67
2022/03/01 04:44:39;;;;;;;19.55;6.60;;;;;;;;;;5032875;28;20540;-67
2022/03/01 04:47:05;;;;;;;18.77;6.72;;;;;;;;;;5032700;28;20033;-68
2022/03/01 04:49:32;;;;;;;21.15;7.00;;;;;;;;;;5032937;28;20080;-62
2022/03/01 04:51:58;;;;;;;18.65;6.63;;;;;;;;;;5015068;28;20029;-68
2022/03/01 04:54:24;;;;;;;18.40;6.13;;;;;;;;;;5033486;28;20033;-68
2022/03/01 04:56:50;;;;;;;19.25;6.70;;;;;;;;;;5048845;28;20075;-68
2022/03/01 04:59:16;;;;;;;19.45;6.70;;;;;;;;;;5044497;28;20378;-66
2022/03/01 05:01:42;;;;;;;20.27;6.80;;;;;;;;;;5032371;28;20017;-68
2022/03/01 05:04:08;;;;;;;19.67;6.80;;;;;;;;;;5032556;28;20072;-68
2022/03/01 05:06:35;;;;;;;18.50;6.60;;;;;;;;;;5032417;28;20040;-68
2022/03/01 05:09:01;;;;;;;18.55;6.68;;;;;;;;;;5046225;28;20032;-68
2022/03/01 05:11:27;;;;;;;18.73;6.78;;;;;;;;;;5034988;28;20034;-67
2022/03/01 05:13:53;;;;;;;18.83;7.05;;;;;;;;;;5046433;28;20029;-63
2022/03/01 05:16:19;;;;;;;19.83;6.82;;;;;;;;;;5052562;28;20029;-67
2022/03/01 05:18:45;;;;;;;19.63;6.78;;;;;;;;;;5037912;28;20025;-68
2022/03/01 05:21:11;;;;;;;19.85;7.10;;;;;;;;;;5035994;28;20389;-67
2022/03/01 05:23:37;;;;;;;19.38;6.55;;;;;;;;;;5035380;28;20041;-66
2022/03/01 05:26:04;;;;;;;20.73;7.20;;;;;;;;;;5035859;28;20025;-68
2022/03/01 05:28:30;;;;;;;19.60;6.85;;;;;;;;;;5052569;28;20033;-67
2022/03/01 05:30:56;;;;;;;18.90;6.60;;;;;;;;;;5055466;28;20132;-64
2022/03/01 05:33:22;;;;;;;19.42;6.90;;;;;;;;;;5055093;28;20073;-68
2022/03/01 05:35:49;;;;;;;19.95;7.10;;;;;;;;;;5037970;28;20527;-69
2022/03/01 05:38:15;;;;;;;18.88;7.07;;;;;;;;;;5056008;28;20032;-68
2022/03/01 05:40:41;;;;;;;19.75;6.80;;;;;;;;;;5055438;28;20029;-68
2022/03/01 05:43:08;;;;;;;20.85;7.20;;;;;;;;;;5045230;28;20049;-68
2022/03/01 05:45:34;;;;;;;21.30;7.20;;;;;;;;;;5035794;28;20029;-66
2022/03/01 05:48:01;;;;;;;19.52;6.97;;;;;;;;;;5047815;28;20040;-67
2022/03/01 05:50:27;;;;;;;18.08;6.90;;;;;;;;;;5055855;28;20168;-65
2022/03/01 05:52:54;;;;;;;19.65;6.82;;;;;;;;;;5055487;28;20028;-68
2022/03/01 05:55:20;;;;;;;19.63;7.07;;;;;;;;;;5055247;28;20112;-68
2022/03/01 05:57:46;;;;;;;20.00;7.13;;;;;;;;;;5055309;28;20524;-67
2022/03/01 06:00:14;;;;;;;20.95;7.20;;;;;;;;;;5054558;28;20063;-68
2022/03/01 06:02:41;;;;;;;20.42;6.90;;;;;;;;;;5054975;28;20044;-67
2022/03/01 06:05:07;;;;;;;20.10;6.93;;;;;;;;;;5055223;28;20112;-67
2022/03/01 06:07:33;;;;;;;19.17;6.75;;;;;;;;;;5055209;28;20482;-64
2022/03/01 06:09:59;;;;;;;20.15;7.03;;;;;;;;;;5041616;28;20037;-67
2022/03/01 06:12:25;;;;;;;19.55;7.07;;;;;;;;;;5035231;28;20451;-67
2022/03/01 06:14:51;;;;;;;18.25;6.82;;;;;;;;;;5036024;28;20048;-67
2022/03/01 06:17:17;;;;;;;21.15;7.30;;;;;;;;;;5035218;28;20056;-67
2022/03/01 06:19:43;;;;;;;19.55;7.30;;;;;;;;;;5035879;28;20025;-68
2022/03/01 06:22:09;;;;;;;19.63;6.95;;;;;;;;;;5047698;28;20033;-67
2022/03/01 06:24:39;;;;;;;21.35;7.50;;;;;;;;;;5054540;28;20028;-67
2022/03/01 06:27:05;;;;;;;20.83;6.90;;;;;;;;;;5054895;28;20025;-67
2022/03/01 06:29:31;;;;;;;18.90;6.75;;;;;;;;;;5052789;28;20437;-65
2022/03/01 06:31:57;;;;;;;21.42;7.68;;;;;;;;;;5054742;28;20021;-67
2022/03/01 06:34:23;;;;;;;20.13;7.00;;;;;;;;;;5054509;28;20406;-68
2022/03/01 06:36:49;;;;;;;20.23;6.95;;;;;;;;;;5039560;28;20026;-68
2022/03/01 06:39:15;;;;;;;19.75;6.65;;;;;;;;;;5034727;28;20026;-68
2022/03/01 06:41:41;;;;;;;20.42;7.13;;;;;;;;;;5034398;28;20044;-64
2022/03/01 06:44:07;;;;;;;20.83;7.43;;;;;;;;;;5051504;28;20389;-67
2022/03/01 06:46:33;;;;;;;19.40;7.22;;;;;;;;;;5043501;28;20025;-68
2022/03/01 06:49:00;;;;;;;18.10;7.07;;;;;;;;;;5052298;28;20480;-67
2022/03/01 06:51:26;;;;;;;19.80;7.80;;;;;;;;;;5054339;28;20021;-68
2022/03/01 06:53:52;;;;;;;21.15;7.30;;;;;;;;;;5053748;28;20037;-68
2022/03/01 06:56:18;;;;;;;19.63;6.75;;;;;;;;;;5054326;28;20100;-66
2022/03/01 06:58:44;;;;;;;20.52;7.25;;;;;;;;;;5053977;28;20545;-62
2022/03/01 07:01:09;;;;;;;19.60;7.43;;;;;;;;;;5053809;28;20029;-67
2022/03/01 07:03:35;;;;;;;21.13;7.53;;;;;;;;;;5054207;28;20371;-63
2022/03/01 07:06:01;;;;;;;20.15;7.05;;;;;;;;;;5049166;28;20029;-68
2022/03/01 07:08:28;;;;;;;20.50;7.20;;;;;;;;;;5016639;28;20026;-67
2022/03/01 07:10:54;;;;;;;20.35;7.70;;;;;;;;;;5034144;28;20375;-68
2022/03/01 07:13:20;;;;;;;21.15;7.30;;;;;;;;;;5045800;28;20071;-68
2022/03/01 07:15:46;;;;;;;19.58;7.20;;;;;;;;;;5042439;28;20115;-63
2022/03/01 07:18:12;;;;;;;21.60;7.57;;;;;;;;;;5053831;28;20021;-68
2022/03/01 07:20:38;;;;;;;21.45;7.35;;;;;;;;;;5053492;28;20025;-67
2022/03/01 07:23:05;;;;;;;20.15;7.18;;;;;;;;;;5053382;28;20070;-68
2022/03/01 07:25:31;;;;;;;19.23;6.72;;;;;;;;;;5053754;28;20029;-68
2022/03/01 07:27:57;;;;;;;18.38;6.85;;;;;;;;;;5053482;28;20025;-67
2022/03/01 07:30:24;;;;;;;21.17;7.20;;;;;;;;;;5053466;28;20025;-67
2022/03/01 07:32:52;;;;;;;18.85;7.10;;;;;;;;;;5048737;28;20026;-67
2022/03/01 07:35:18;;;;;;;20.00;7.40;;;;;;;;;;5044621;28;20462;-67
2022/03/01 07:37:44;;;;;;;21.05;7.55;;;;;;;;;;5039671;28;20036;-68
2022/03/01 07:40:12;;;;;;;18.45;7.20;;;;;;;;;;5033003;28;20033;-66
2022/03/01 07:42:38;;;;;;;21.92;7.40;;;;;;;;;;5034208;28;20048;-67
2022/03/01 07:45:05;;;;;;;20.60;6.88;;;;;;;;;;5050627;28;20029;-67
2022/03/01 07:47:32;;;;;;;19.70;7.55;;;;;;;;;;5042026;28;20394;-61
2022/03/01 07:49:58;;;;;;;19.20;7.32;;;;;;;;;;5033258;28;20029;-65
2022/03/01 07:52:24;;;;;;;18.75;6.78;;;;;;;;;;5036542;28;20030;-62
2022/03/01 07:54:50;;;;;;;21.52;7.30;;;;;;;;;;5045961;28;20109;-68
2022/03/01 07:57:16;;;;;;;20.52;7.40;;;;;;;;;;5053163;28;20405;-66
2022/03/01 07:59:42;;;;;;;20.40;7.75;;;;;;;;;;5053177;28;20032;-68
2022/03/01 08:02:08;;;;;;;21.25;7.03;;;;;;;;;;5050271;28;20035;-68
2022/03/01 08:04:35;;;;;;;19.63;7.10;;;;;;;;;;5051261;28;20466;-68
2022/03/01 08:07:01;;;;;;;20.83;7.85;;;;;;;;;;5052461;28;20389;-60
2022/03/01 08:09:27;;;;;;;22.50;7.72;;;;;;;;;;5049196;28;20493;-60
2022/03/01 08:11:53;;;;;;;22.48;7.68;;;;;;;;;;5051971;28;20029;-60
2022/03/01 08:14:19;;;;;;;25.83;7.60;;;;;;;;;;5044653;28;20486;-62
2022/03/01 08:16:45;;;;;;;20.35;8.00;;;;;;;;;;5041108;28;20013;-61
2022/03/01 08:19:11;;;;;;;20.77;7.72;;;;;;;;;;5052541;28;20104;-61
2022/03/01 08:21:37;;;;;;;20.15;7.18;;;;;;;;;;5052260;28;20021;-63
2022/03/01 08:24:04;;;;;;;25.17;7.95;;;;;;;;;;5052733;28;20082;-67
2022/03/01 08:26:30;;;;;;;24.60;6.78;;;;;;;;;;5050521;28;20025;-66
2022/03/01 08:28:56;;;;;;;25.33;7.63;;;;;;;;;;5050492;28;20048;-73
2022/03/01 08:31:22;;;;;;;47.95;8.25;;;;;;;;;;5051212;28;20149;-66
2022/03/01 08:33:48;;;;;;;40.67;8.23;;;;;;;;;;5042673;28;20040;-64
2022/03/01 08:36:14;;;;;;;36.85;8.23;;;;;;;;;;5032453;28;20029;-60
2022/03/01 08:38:41;;;;;;;36.63;8.48;;;;;;;;;;5034016;28;20033;-65
2022/03/01 08:41:07;;;;;;;30.55;8.68;;;;;;;;;;5046046;28;20033;-58
2022/03/01 08:43:33;;;;;;;34.10;9.00;;;;;;;;;;5032489;28;20103;-63
2022/03/01 08:45:59;;;;;;;31.63;8.45;;;;;;;;;;5046139;28;20074;-65
2022/03/01 08:48:25;;;;;;;28.33;8.80;;;;;;;;;;5060732;28;20036;-66
2022/03/01 08:50:51;;;;;;;29.63;8.68;;;;;;;;;;5060230;28;20021;-66
2022/03/01 08:53:19;;;;;;;22.65;8.23;;;;;;;;;;5061550;28;20027;-64
2022/03/01 08:55:45;;;;;;;71.88;11.85;;;;;;;;;;5064941;28;20082;-66
2022/03/01 08:58:12;;;;;;;87.25;12.00;;;;;;;;;;5047247;28;20029;-63
2022/03/01 09:00:38;;;;;;;73.40;10.52;;;;;;;;;;5039767;28;20035;-65
2022/03/01 09:03:04;;;;;;;49.95;9.98;;;;;;;;;;5052471;28;20025;-63
2022/03/01 09:05:32;;;;;;;34.80;9.10;;;;;;;;;;5053033;28;20027;-64
2022/03/01 09:07:58;;;;;;;41.45;8.98;;;;;;;;;;5054185;28;20082;-64
2022/03/01 09:10:24;;;;;;;40.97;9.73;;;;;;;;;;5051386;28;20074;-65
2022/03/01 09:12:54;;;;;;;31.25;8.75;;;;;;;;;;5066908;28;20020;-65
2022/03/01 09:15:20;;;;;;;36.20;8.60;;;;;;;;;;5066212;28;20068;-64
2022/03/01 09:17:47;;;;;;;36.47;8.48;;;;;;;;;;5047606;28;20029;-64
2022/03/01 09:20:13;;;;;;;28.23;8.25;;;;;;;;;;5049292;28;20052;-63
2022/03/01 09:22:39;;;;;;;26.15;8.18;;;;;;;;;;5058024;28;20028;-65
2022/03/01 09:25:06;;;;;;;27.33;8.38;;;;;;;;;;5071131;28;20170;-64
2022/03/01 09:27:32;;;;;;;23.90;7.75;;;;;;;;;;5055513;28;20021;-65
2022/03/01 09:29:58;;;;;;;28.75;7.63;;;;;;;;;;5048789;28;20040;-64
2022/03/01 09:32:26;;;;;;;23.17;7.70;;;;;;;;;;5059569;28;20409;-64
2022/03/01 09:34:52;;;;;;;22.85;7.68;;;;;;;;;;5051008;28;20064;-66
2022/03/01 09:37:18;;;;;;;21.98;7.43;;;;;;;;;;5049315;28;20021;-64
2022/03/01 09:39:44;;;;;;;25.42;8.55;;;;;;;;;;5063627;28;20494;-64
2022/03/01 09:42:10;;;;;;;23.13;7.05;;;;;;;;;;5060516;28;20029;-65
2022/03/01 09:44:36;;;;;;;23.20;7.47;;;;;;;;;;5062335;28;20035;-64
2022/03/01 09:47:03;;;;;;;26.30;9.27;;;;;;;;;;5059355;28;20063;-66
2022/03/01 09:49:29;;;;;;;26.23;8.63;;;;;;;;;;5054679;28;20029;-64
2022/03/01 09:51:56;;;;;;;24.35;8.55;;;;;;;;;;5034472;28;20025;-63
2022/03/01 09:54:25;;;;;;;22.17;8.73;;;;;;;;;;5049890;28;20033;-63
2022/03/01 09:56:51;;;;;;;25.27;8.45;;;;;;;;;;5054627;28;20055;-65
2022/03/01 09:59:17;;;;;;;26.05;8.10;;;;;;;;;;5053329;28;20485;-63
2022/03/01 10:01:53;;;;;;;22.95;8.00;;;;;;;;;;5054521;28;20087;-63
2022/03/01 10:04:19;;;;;;;27.35;8.73;;;;;;;;;;5045878;28;20482;-63
2022/03/01 10:06:47;;;;;;;25.10;8.52;;;;;;;;;;5046013;28;20024;-64
2022/03/01 10:09:14;;;;;;;23.60;7.70;;;;;;;;;;5053992;28;20021;-63
2022/03/01 10:11:40;;;;;;;22.27;8.05;;;;;;;;;;5034720;28;20377;-67
2022/03/01 10:14:07;;;;;;;21.30;7.72;;;;;;;;;;5034602;28;20121;-67
2022/03/01 10:16:45;;;;;;;20.17;7.20;;;;;;;;;;5033741;28;20026;-66
2022/03/01 10:19:21;;;;;;;22.10;7.13;;;;;;;;;;5049055;28;20029;-66
2022/03/01 10:22:00;;;;;;;23.92;7.32;;;;;;;;;;5054492;28;20108;-65
2022/03/01 10:24:27;;;;;;;23.05;7.53;;;;;;;;;;5054257;28;20032;-66
2022/03/01 10:27:05;;;;;;;21.70;7.55;;;;;;;;;;5052573;28;20033;-66
2022/03/01 10:29:31;;;;;;;20.65;7.57;;;;;;;;;;5053071;28;20367;-64
2022/03/01 10:32:00;;;;;;;21.58;7.20;;;;;;;;;;5053681;28;20112;-63
2022/03/01 10:34:27;;;;;;;20.73;7.57;;;;;;;;;;5056459;28;20041;-65
2022/03/01 10:36:53;;;;;;;22.13;7.63;;;;;;;;;;5062286;28;20028;-63
2022/03/01 10:39:26;;;;;;;19.38;6.80;;;;;;;;;;5062058;28;20528;-63
2022/03/01 10:41:53;;;;;;;19.33;6.72;;;;;;;;;;5061986;28;20036;-64
2022/03/01 10:44:19;;;;;;;18.75;6.90;;;;;;;;;;5062828;28;20053;-62
2022/03/01 10:46:56;;;;;;;20.70;7.07;;;;;;;;;;5064723;28;20056;-66
2022/03/01 10:49:23;;;;;;;19.10;6.57;;;;;;;;;;5058317;28;20033;-62
2022/03/01 10:51:53;;;;;;;21.75;6.90;;;;;;;;;;5062375;28;20028;-63
2022/03/01 10:54:28;;;;;;;21.05;7.10;;;;;;;;;;5059547;28;20044;-62
2022/03/01 10:56:55;;;;;;;18.60;6.70;;;;;;;;;;5058231;28;20501;-64
2022/03/01 10:59:22;;;;;;;20.75;6.75;;;;;;;;;;5034298;28;20056;-64
2022/03/01 11:01:48;;;;;;;20.58;6.75;;;;;;;;;;5034269;28;20498;-65
2022/03/01 11:04:14;;;;;;;19.70;6.63;;;;;;;;;;5033918;28;20032;-65
2022/03/01 11:06:41;;;;;;;18.83;6.30;;;;;;;;;;5040726;28;20055;-63
2022/03/01 11:09:08;;;;;;;21.40;6.70;;;;;;;;;;5063713;28;20024;-63
2022/03/01 11:11:35;;;;;;;18.60;6.30;;;;;;;;;;5058710;28;20086;-65
2022/03/01 11:14:03;;;;;;;21.00;6.80;;;;;;;;;;5060430;28;20052;-64
2022/03/01 11:16:48;;;;;;;20.13;6.20;;;;;;;;;;5061383;28;20029;-63
2022/03/01 11:19:46;;;;;;;20.15;6.60;;;;;;;;;;5060538;28;20363;-64
2022/03/01 11:22:18;;;;;;;21.00;6.65;;;;;;;;;;5006451;28;20047;-65
2022/03/01 11:24:44;;;;;;;21.98;7.13;;;;;;;;;;5072789;28;20071;-63
2022/03/01 11:27:10;;;;;;;23.95;6.65;;;;;;;;;;5046653;28;20025;-61
2022/03/01 11:29:40;;;;;;;23.08;7.60;;;;;;;;;;5037859;28;20044;-63
2022/03/01 11:32:10;;;;;;;24.80;7.43;;;;;;;;;;5056090;28;20028;-65
2022/03/01 11:34:37;;;;;;;24.02;8.05;;;;;;;;;;5055132;28;20635;-66
2022/03/01 11:37:03;;;;;;;22.75;7.95;;;;;;;;;;5050799;28;20159;-62
2022/03/01 11:39:31;;;;;;;24.40;10.35;;;;;;;;;;5047077;28;20036;-64
2022/03/01 11:42:02;;;;;;;57.08;48.67;;;;;;;;;;5059564;28;20032;-67
2022/03/01 11:44:32;;;;;;;37.22;25.50;;;;;;;;;;5048787;28;20041;-64
2022/03/01 11:46:59;;;;;;;121.93;60.38;;;;;;;;;;5053625;28;20033;-61
2022/03/01 11:49:26;;;;;;;159.80;75.43;;;;;;;;;;5047365;28;20057;-63
2022/03/01 11:51:56;;;;;;;276.17;148.70;;;;;;;;;;5037526;28;20037;-60
2022/03/01 11:54:23;;;;;;;432.55;276.17;;;;;;;;;;5046740;28;20044;-63
2022/03/01 11:56:51;;;;;;;360.92;219.05;;;;;;;;;;5048630;28;20086;-62
2022/03/01 11:59:18;;;;;;;435.08;310.80;;;;;;;;;;5050707;28;20112;-62
2022/03/01 12:01:44;;;;;;;450.70;331.05;;;;;;;;;;5044172;28;20029;-64
2022/03/01 12:04:10;;;;;;;453.25;342.77;;;;;;;;;;5038435;28;20057;-63
2022/03/01 12:06:40;;;;;;;446.02;346.23;;;;;;;;;;5042535;28;20044;-65
2022/03/01 12:09:10;;;;;;;448.00;341.90;;;;;;;;;;5040855;28;20480;-57
2022/03/01 12:11:40;;;;;;;419.88;314.25;;;;;;;;;;5038768;28;20062;-68
2022/03/01 12:14:07;;;;;;;371.67;275.08;;;;;;;;;;5050078;28;20118;-61
2022/03/01 12:16:33;;;;;;;357.58;262.38;;;;;;;;;;5047062;28;20032;-71
2022/03/01 12:19:07;;;;;;;336.90;242.00;;;;;;;;;;5045332;28;20025;-64
2022/03/01 12:21:33;;;;;;;300.58;225.52;;;;;;;;;;5046602;28;20395;-60
2022/03/01 12:23:59;;;;;;;268.48;188.38;;;;;;;;;;5041795;28;20433;-62
2022/03/01 12:26:27;;;;;;;249.63;173.75;;;;;;;;;;5045296;28;20469;-58
2022/03/01 12:28:56;;;;;;;229.18;162.73;;;;;;;;;;5053205;28;20029;-57
2022/03/01 12:31:25;;;;;;;208.65;149.35;;;;;;;;;;5047707;28;20044;-58
2022/03/01 12:33:55;;;;;;;188.30;134.57;;;;;;;;;;5053853;28;20471;-57
2022/03/01 12:36:27;;;;;;;181.03;127.27;;;;;;;;;;5049344;28;20390;-57
2022/03/01 12:38:54;;;;;;;163.23;120.20;;;;;;;;;;5052991;28;20266;-60
2022/03/01 12:41:24;;;;;;;158.40;116.00;;;;;;;;;;5048967;28;20025;-68
2022/03/01 12:43:54;;;;;;;148.77;109.10;;;;;;;;;;5051589;28;20075;-66
2022/03/01 12:46:20;;;;;;;136.95;95.32;;;;;;;;;;5031134;28;20032;-59
2022/03/01 12:48:48;;;;;;;128.95;94.50;;;;;;;;;;5059765;28;20034;-66
2022/03/01 12:51:14;;;;;;;101.78;67.88;;;;;;;;;;5046888;28;20454;-60
2022/03/01 12:53:59;;;;;;;93.68;62.85;;;;;;;;;;5045735;28;20033;-59
2022/03/01 12:56:26;;;;;;;86.32;58.38;;;;;;;;;;5047267;28;20047;-59
2022/03/01 12:58:55;;;;;;;79.15;53.55;;;;;;;;;;5052555;28;20473;-58
2022/03/01 13:01:21;;;;;;;71.20;49.85;;;;;;;;;;5056029;28;20071;-56
2022/03/01 13:03:51;;;;;;;64.82;45.92;;;;;;;;;;5058682;28;20048;-61
2022/03/01 13:06:18;;;;;;;61.78;45.08;;;;;;;;;;5058235;28;20025;-56
2022/03/01 13:08:45;;;;;;;59.90;43.08;;;;;;;;;;5058810;28;20017;-61
2022/03/01 13:11:12;;;;;;;59.00;41.17;;;;;;;;;;5053848;28;20036;-57
2022/03/01 13:13:43;;;;;;;54.05;34.63;;;;;;;;;;5053446;28;20044;-58
2022/03/01 13:16:10;;;;;;;51.38;31.20;;;;;;;;;;5049941;28;20098;-58
2022/03/01 13:18:36;;;;;;;44.88;27.67;;;;;;;;;;5052782;28;20029;-58
2022/03/01 13:21:02;;;;;;;44.67;22.85;;;;;;;;;;5059138;28;20029;-58
2022/03/01 13:23:29;;;;;;;41.97;22.23;;;;;;;;;;5050960;28;20017;-59
2022/03/01 13:25:56;;;;;;;34.17;18.50;;;;;;;;;;5052253;28;20035;-58
2022/03/01 13:28:32;;;;;;;33.22;17.15;;;;;;;;;;5052832;28;20025;-58
2022/03/01 13:30:58;;;;;;;31.25;15.20;;;;;;;;;;5060826;28;20039;-59
2022/03/01 13:33:27;;;;;;;28.50;13.63;;;;;;;;;;5061805;28;20028;-57
2022/03/01 13:35:53;;;;;;;26.13;12.77;;;;;;;;;;5058950;28;20032;-57
2022/03/01 13:38:20;;;;;;;29.48;12.13;;;;;;;;;;5058242;28;20358;-58
2022/03/01 13:40:47;;;;;;;31.33;11.48;;;;;;;;;;5054883;28;20481;-59
2022/03/01 13:43:17;;;;;;;40.05;13.35;;;;;;;;;;5053241;28;20420;-60
2022/03/01 13:45:43;;;;;;;34.78;13.50;;;;;;;;;;5041626;28;20033;-68
2022/03/01 13:48:11;;;;;;;30.67;13.45;;;;;;;;;;5049093;28;20029;-61
2022/03/01 13:50:38;;;;;;;28.05;13.00;;;;;;;;;;5042859;28;20481;-60
2022/03/01 13:53:15;;;;;;;29.83;12.95;;;;;;;;;;5052353;28;20064;-59
2022/03/01 13:55:41;;;;;;;28.10;11.63;;;;;;;;;;5054878;28;20086;-58
2022/03/01 13:58:10;;;;;;;27.92;11.30;;;;;;;;;;5054419;28;20061;-60
2022/03/01 14:00:38;;;;;;;31.48;10.93;;;;;;;;;;5051314;28;20108;-58
2022/03/01 14:03:10;;;;;;;26.17;10.25;;;;;;;;;;5049889;28;20035;-58
2022/03/01 14:05:39;;;;;;;24.20;10.75;;;;;;;;;;5054001;28;20082;-58
2022/03/01 14:08:15;;;;;;;24.20;10.27;;;;;;;;;;5061630;28;20033;-61
2022/03/01 14:10:43;;;;;;;23.25;9.82;;;;;;;;;;5058917;28;20087;-58
2022/03/01 14:13:16;;;;;;;24.08;9.70;;;;;;;;;;5057956;28;20067;-59
2022/03/01 14:15:45;;;;;;;24.70;9.48;;;;;;;;;;5049357;28;20044;-59
2022/03/01 14:18:12;;;;;;;24.13;8.85;;;;;;;;;;5048664;28;20085;-59
2022/03/01 14:20:38;;;;;;;22.25;8.70;;;;;;;;;;5055251;28;20112;-59
2022/03/01 14:23:05;;;;;;;23.27;8.32;;;;;;;;;;5059679;28;20021;-59
2022/03/01 14:25:31;;;;;;;22.08;8.43;;;;;;;;;;5060822;28;20029;-59
2022/03/01 14:27:57;;;;;;;22.23;8.10;;;;;;;;;;5064734;28;20048;-59